Time;durP1;ratioP1;P1;durP2;ratioP2;P2;SDS_P1;SDS_P2;PMS_P1;PMS_P2;Temp;Humidity;BMP_temperature;BMP_pressure;BME280_temperature;BME280_humidity;BME280_pressure;Samples;Min_cycle;Max_cycle;Signal;HPM_P1;HPM_P2
2022/06/09 00:02:04;;;;;;;0.73;0.73;;;22.00;68.80;;;;;;5107591;27;43955;-68
2022/06/09 00:04:34;;;;;;;0.80;0.80;;;22.10;68.20;;;;;;5088760;27;45619;-68
2022/06/09 00:07:03;;;;;;;0.60;0.60;;;22.30;67.90;;;;;;5107614;27;44063;-68
2022/06/09 00:09:33;;;;;;;0.60;0.60;;;22.40;67.50;;;;;;5089557;27;44164;-68
2022/06/09 00:12:01;;;;;;;0.70;0.70;;;22.50;67.10;;;;;;5107494;27;43592;-69
2022/06/09 00:14:29;;;;;;;1.23;0.80;;;22.50;66.90;;;;;;5107308;27;43348;-68
2022/06/09 00:16:57;;;;;;;0.70;0.70;;;22.40;66.90;;;;;;5107119;27;43952;-68
2022/06/09 00:19:27;;;;;;;0.73;0.73;;;22.30;67.40;;;;;;5107780;27;43848;-68
2022/06/09 00:21:55;;;;;;;0.90;0.90;;;22.10;67.70;;;;;;5107397;27;44109;-69
2022/06/09 00:24:23;;;;;;;0.60;0.60;;;21.90;68.00;;;;;;5088715;27;45370;-69
2022/06/09 00:26:51;;;;;;;0.70;0.70;;;21.70;68.40;;;;;;5107485;27;43803;-68
2022/06/09 00:29:19;;;;;;;0.70;0.70;;;21.60;68.90;;;;;;5107763;27;44006;-68
2022/06/09 00:31:47;;;;;;;0.70;0.70;;;21.40;69.20;;;;;;5088359;27;45617;-68
2022/06/09 00:34:15;;;;;;;0.60;0.60;;;21.40;69.60;;;;;;5107178;27;44062;-68
2022/06/09 00:36:44;;;;;;;0.70;0.70;;;21.30;69.80;;;;;;5107358;27;43940;-69
2022/06/09 00:39:12;;;;;;;0.60;0.60;;;21.20;69.90;;;;;;5107547;27;43418;-68
2022/06/09 00:41:41;;;;;;;0.70;0.70;;;21.20;70.10;;;;;;5107241;27;43786;-68
2022/06/09 00:44:14;;;;;;;0.90;0.90;;;21.20;70.30;;;;;;5106966;27;43894;-69
2022/06/09 00:46:42;;;;;;;0.63;0.63;;;21.10;70.30;;;;;;5097610;27;43928;-68
2022/06/09 00:49:15;;;;;;;0.80;0.80;;;21.10;70.40;;;;;;5097348;27;43463;-68
2022/06/09 00:51:46;;;;;;;0.70;0.70;;;21.10;70.50;;;;;;5106532;27;43995;-68
2022/06/09 00:54:15;;;;;;;0.70;0.70;;;21.10;70.60;;;;;;5088230;27;44680;-68
2022/06/09 00:56:45;;;;;;;0.80;0.80;;;21.10;70.60;;;;;;5106791;27;44063;-68
2022/06/09 00:59:14;;;;;;;0.70;0.70;;;21.10;70.60;;;;;;5109294;27;43990;-68
2022/06/09 01:01:44;;;;;;;0.70;0.70;;;21.00;70.50;;;;;;5113628;27;44012;-68
2022/06/09 01:04:13;;;;;;;0.77;0.77;;;21.00;70.50;;;;;;5094977;27;44785;-68
2022/06/09 01:06:42;;;;;;;0.70;0.70;;;21.10;71.30;;;;;;5113970;27;43943;-68
2022/06/09 01:09:14;;;;;;;0.60;0.60;;;21.20;71.20;;;;;;5114012;27;44028;-68
2022/06/09 01:11:42;;;;;;;0.80;0.80;;;21.30;70.80;;;;;;5113531;27;43935;-67
2022/06/09 01:14:13;;;;;;;0.80;0.80;;;21.50;70.40;;;;;;5094741;27;43944;-69
2022/06/09 01:16:48;;;;;;;0.83;0.83;;;21.60;69.90;;;;;;5075662;28;43973;-69
2022/06/09 01:19:41;;;;;;;1.00;1.00;;;21.80;69.20;;;;;;5101573;27;43876;-68
2022/06/09 01:22:51;;;;;;;0.80;0.80;;;22.10;68.70;;;;;;5094875;27;44917;-69
2022/06/09 01:25:31;;;;;;;0.70;0.70;;;22.20;68.00;;;;;;5049920;28;44003;-69
2022/06/09 01:28:33;;;;;;;0.80;0.80;;;22.30;68.20;;;;;;5109822;27;43891;-68
2022/06/09 01:31:07;;;;;;;0.77;0.70;;;22.50;68.00;;;;;;5095280;27;44084;-69
2022/06/09 01:33:39;;;;;;;0.60;0.60;;;22.60;67.60;;;;;;5113158;27;44035;-69
2022/06/09 01:36:10;;;;;;;0.70;0.70;;;22.60;66.60;;;;;;5113530;27;43762;-69
2022/06/09 01:38:46;;;;;;;0.60;0.60;;;22.60;66.40;;;;;;5113439;27;43896;-68
2022/06/09 01:41:14;;;;;;;0.63;0.63;;;22.60;67.30;;;;;;5095037;27;44028;-68
2022/06/09 01:43:42;;;;;;;0.90;0.90;;;22.40;66.80;;;;;;5112942;27;45015;-69
2022/06/09 01:46:14;;;;;;;0.80;0.80;;;22.20;67.40;;;;;;5094745;27;44822;-69
2022/06/09 01:48:43;;;;;;;0.70;0.70;;;22.00;67.60;;;;;;5112888;27;44000;-68
2022/06/09 01:51:12;;;;;;;0.60;0.60;;;21.80;68.10;;;;;;5113795;27;43951;-68
2022/06/09 01:53:42;;;;;;;0.50;0.50;;;21.60;68.50;;;;;;5112691;27;43772;-69
2022/06/09 01:56:12;;;;;;;0.60;0.60;;;21.50;68.90;;;;;;5112917;27;43390;-69
2022/06/09 01:58:43;;;;;;;0.70;0.70;;;21.40;69.30;;;;;;5093337;28;43979;-69
2022/06/09 02:01:14;;;;;;;0.70;0.70;;;21.30;69.60;;;;;;5093671;27;43956;-68
2022/06/09 02:03:44;;;;;;;0.67;0.67;;;21.20;69.70;;;;;;5092724;27;43608;-68
2022/06/09 02:06:12;;;;;;;0.80;0.80;;;21.20;69.90;;;;;;5093379;27;43950;-68
2022/06/09 02:08:40;;;;;;;0.70;0.70;;;21.20;70.20;;;;;;5093642;27;43915;-68
2022/06/09 02:11:09;;;;;;;0.70;0.70;;;21.10;70.20;;;;;;5080014;27;43967;-68
2022/06/09 02:13:39;;;;;;;0.60;0.60;;;21.10;70.30;;;;;;5109476;27;44027;-68
2022/06/09 02:16:08;;;;;;;0.73;0.73;;;21.10;70.40;;;;;;5091014;27;46214;-68
2022/06/09 02:18:39;;;;;;;0.73;0.73;;;21.10;70.40;;;;;;5109346;27;44349;-68
2022/06/09 02:21:10;;;;;;;0.80;0.80;;;21.00;70.40;;;;;;5110090;27;43949;-70
2022/06/09 02:23:38;;;;;;;0.70;0.70;;;21.00;70.40;;;;;;5090709;27;45999;-68
2022/06/09 02:26:06;;;;;;;0.80;0.80;;;21.00;70.40;;;;;;5109265;27;43348;-68
2022/06/09 02:28:34;;;;;;;0.90;0.90;;;21.00;70.50;;;;;;5109378;27;43974;-68
2022/06/09 02:31:03;;;;;;;0.70;0.70;;;21.00;70.50;;;;;;5109641;27;43997;-69
2022/06/09 02:33:31;;;;;;;0.80;0.80;;;21.00;70.50;;;;;;5108539;27;43903;-69
2022/06/09 02:36:00;;;;;;;0.80;0.80;;;21.00;70.50;;;;;;5090580;27;45155;-68
2022/06/09 02:38:28;;;;;;;0.70;0.70;;;21.00;71.00;;;;;;5109120;27;43457;-69
2022/06/09 02:40:56;;;;;;;0.73;0.73;;;21.00;71.20;;;;;;5109487;27;43893;-68
2022/06/09 02:43:24;;;;;;;0.73;0.73;;;21.20;70.80;;;;;;5109022;27;44044;-68
2022/06/09 02:45:53;;;;;;;0.97;0.73;;;21.40;70.40;;;;;;5109024;27;43992;-69
2022/06/09 02:48:22;;;;;;;0.50;0.50;;;21.60;69.90;;;;;;5090036;27;43963;-69
2022/06/09 02:50:52;;;;;;;0.80;0.80;;;21.80;69.20;;;;;;5109238;27;44038;-68
2022/06/09 02:53:22;;;;;;;0.90;0.90;;;22.00;68.70;;;;;;5090121;27;45865;-68
2022/06/09 02:55:50;;;;;;;0.70;0.70;;;22.10;68.10;;;;;;5108493;27;43944;-68
2022/06/09 02:58:18;;;;;;;0.60;0.60;;;22.20;67.70;;;;;;5108458;27;44401;-68
2022/06/09 03:00:46;;;;;;;0.60;0.60;;;22.30;67.20;;;;;;5109275;27;43962;-69
2022/06/09 03:03:15;;;;;;;0.73;0.73;;;22.40;66.90;;;;;;5108744;27;43923;-68
2022/06/09 03:05:42;;;;;;;0.80;0.80;;;22.40;66.80;;;;;;5108355;27;44002;-69
2022/06/09 03:08:11;;;;;;;0.60;0.60;;;22.40;66.90;;;;;;5108983;27;43872;-69
2022/06/09 03:10:41;;;;;;;0.70;0.70;;;22.20;67.40;;;;;;5109343;27;43972;-69
2022/06/09 03:13:09;;;;;;;0.60;0.60;;;22.00;67.60;;;;;;5108818;27;43928;-68
2022/06/09 03:15:37;;;;;;;0.73;0.73;;;21.80;67.90;;;;;;5108690;27;43892;-68
2022/06/09 03:18:07;;;;;;;0.70;0.70;;;21.60;68.30;;;;;;5108410;27;43986;-69
2022/06/09 03:20:35;;;;;;;0.77;0.70;;;21.50;68.90;;;;;;5108743;27;43900;-68
2022/06/09 03:23:03;;;;;;;0.80;0.80;;;21.30;69.20;;;;;;5107961;27;44058;-68
2022/06/09 03:25:32;;;;;;;0.60;0.60;;;21.20;69.50;;;;;;5108465;27;44014;-68
2022/06/09 03:28:05;;;;;;;0.70;0.70;;;21.20;69.70;;;;;;5104499;27;43331;-68
2022/06/09 03:30:33;;;;;;;0.67;0.67;;;21.10;69.90;;;;;;5107886;27;43966;-69
2022/06/09 03:33:03;;;;;;;0.60;0.60;;;21.10;70.10;;;;;;5108354;27;43992;-69
2022/06/09 03:35:32;;;;;;;0.70;0.70;;;21.10;70.20;;;;;;5108100;27;44013;-68
2022/06/09 03:38:00;;;;;;;0.70;0.70;;;21.00;71.00;;;;;;5108321;27;43932;-68
2022/06/09 03:40:29;;;;;;;0.70;0.70;;;21.00;70.40;;;;;;5108817;27;43900;-68
2022/06/09 03:42:57;;;;;;;0.70;0.70;;;21.00;70.40;;;;;;5108413;27;44365;-68
2022/06/09 03:45:26;;;;;;;0.70;0.70;;;21.00;70.40;;;;;;5095856;27;43916;-68
2022/06/09 03:47:54;;;;;;;0.50;0.50;;;21.00;70.50;;;;;;5069953;28;43923;-68
2022/06/09 03:50:27;;;;;;;0.73;0.73;;;21.00;70.50;;;;;;5108622;27;44062;-68
2022/06/09 03:52:55;;;;;;;0.63;0.63;;;20.90;70.40;;;;;;5088023;28;44687;-69
2022/06/09 03:55:23;;;;;;;0.67;0.67;;;20.90;70.40;;;;;;5069698;28;44614;-68
2022/06/09 03:57:51;;;;;;;0.97;0.77;;;20.90;71.20;;;;;;5087958;27;44019;-68
2022/06/09 04:00:21;;;;;;;0.77;0.77;;;21.00;71.90;;;;;;5088769;27;43913;-69
2022/06/09 04:02:53;;;;;;;0.70;0.70;;;21.10;71.10;;;;;;5088271;27;43935;-68
2022/06/09 04:05:22;;;;;;;0.70;0.70;;;21.20;70.70;;;;;;5107090;27;44245;-68
2022/06/09 04:07:50;;;;;;;0.60;0.60;;;21.40;70.30;;;;;;5069713;27;43929;-68
2022/06/09 04:10:19;;;;;;;0.77;0.77;;;21.60;69.80;;;;;;5088475;27;43889;-68
2022/06/09 04:12:47;;;;;;;0.77;0.77;;;21.80;69.10;;;;;;5087965;27;44035;-68
2022/06/09 04:15:15;;;;;;;0.70;0.70;;;21.90;68.50;;;;;;5102244;27;43914;-68
2022/06/09 04:17:43;;;;;;;0.80;0.80;;;22.10;68.10;;;;;;5107406;27;43824;-68
2022/06/09 04:20:13;;;;;;;0.70;0.70;;;22.20;68.30;;;;;;5108244;27;43959;-68
2022/06/09 04:22:41;;;;;;;0.70;0.70;;;22.30;67.30;;;;;;5107724;27;44007;-68
2022/06/09 04:25:16;;;;;;;0.80;0.80;;;22.40;66.90;;;;;;5107678;27;43472;-70
2022/06/09 04:27:44;;;;;;;0.70;0.70;;;22.50;66.70;;;;;;5105366;27;43391;-69
2022/06/09 04:30:13;;;;;;;0.73;0.67;;;22.50;66.60;;;;;;5088252;27;43538;-68
2022/06/09 04:32:40;;;;;;;0.70;0.70;;;22.40;66.70;;;;;;5103489;27;43908;-69
2022/06/09 04:35:09;;;;;;;0.70;0.70;;;22.20;67.10;;;;;;5085881;27;44346;-69
2022/06/09 04:40:24;;;;;;;0.70;0.70;;;21.80;68.40;;;;;;5106648;27;44157;-69
2022/06/09 04:42:52;;;;;;;0.77;0.77;;;21.60;68.20;;;;;;5107257;27;44008;-69
2022/06/09 04:45:20;;;;;;;0.70;0.70;;;21.50;68.70;;;;;;5107212;27;44124;-69
2022/06/09 04:47:48;;;;;;;0.70;0.70;;;21.40;69.10;;;;;;5106980;27;43947;-68
2022/06/09 04:50:18;;;;;;;0.60;0.60;;;21.30;70.10;;;;;;5088991;27;43948;-69
2022/06/09 04:52:47;;;;;;;0.70;0.70;;;21.20;69.50;;;;;;5082543;28;45687;-68
2022/06/09 04:55:15;;;;;;;0.63;0.63;;;21.20;69.80;;;;;;5087761;27;44663;-68
2022/06/09 04:57:43;;;;;;;0.60;0.60;;;21.10;69.90;;;;;;5106858;27;43778;-69
2022/06/09 05:00:14;;;;;;;0.70;0.70;;;21.10;70.00;;;;;;5107386;27;44023;-68
2022/06/09 05:02:42;;;;;;;0.80;0.80;;;21.00;70.10;;;;;;5100805;27;44043;-70
2022/06/09 05:05:15;;;;;;;0.80;0.80;;;21.00;70.10;;;;;;5100644;27;43996;-68
2022/06/09 05:07:43;;;;;;;0.80;0.80;;;21.00;70.20;;;;;;5100670;27;43889;-69
2022/06/09 05:10:13;;;;;;;0.60;0.60;;;21.00;71.00;;;;;;5087685;28;44019;-68
2022/06/09 05:12:41;;;;;;;0.70;0.70;;;21.00;70.40;;;;;;5087392;27;43747;-69
2022/06/09 05:15:12;;;;;;;0.73;0.73;;;21.00;70.40;;;;;;5100974;27;43900;-69
2022/06/09 05:17:41;;;;;;;0.63;0.63;;;20.90;70.40;;;;;;5107122;27;43354;-68
2022/06/09 05:20:10;;;;;;;0.70;0.70;;;20.90;70.40;;;;;;5107399;27;43319;-68
2022/06/09 05:22:38;;;;;;;0.60;0.60;;;20.90;70.40;;;;;;5098770;27;44711;-68
2022/06/09 05:25:08;;;;;;;0.70;0.70;;;20.90;70.40;;;;;;5094922;27;43759;-68
2022/06/09 05:27:37;;;;;;;0.77;0.77;;;20.90;70.40;;;;;;5106899;27;44050;-68
2022/06/09 05:30:06;;;;;;;0.90;0.90;;;20.90;71.00;;;;;;5100439;27;44052;-69
2022/06/09 05:32:34;;;;;;;0.63;0.63;;;21.00;71.10;;;;;;5106558;27;44338;-68
2022/06/09 05:35:01;;;;;;;0.97;0.70;;;21.20;70.90;;;;;;5073417;27;44656;-69
2022/06/09 05:44:50;;;;;;;0.73;0.73;;;21.40;70.20;;;;;;5076653;27;43964;-68
2022/06/09 05:45:51;;;;;;;0.77;0.77;;;21.90;68.40;;;;;;5069583;28;44928;-69
2022/06/09 05:48:19;;;;;;;0.50;0.50;;;22.10;68.00;;;;;;5077351;28;44094;-69
2022/06/09 05:50:47;;;;;;;0.73;0.70;;;22.20;67.70;;;;;;5090664;28;43330;-69
2022/06/09 05:53:18;;;;;;;0.87;0.87;;;22.20;67.30;;;;;;5089659;28;43900;-69
2022/06/09 05:55:47;;;;;;;0.80;0.80;;;22.30;67.00;;;;;;5089758;28;43875;-68
2022/06/09 05:58:17;;;;;;;0.50;0.50;;;22.30;67.10;;;;;;5088335;27;43864;-68
2022/06/09 06:00:45;;;;;;;0.80;0.80;;;22.10;67.30;;;;;;5110286;27;44014;-68
2022/06/09 06:03:14;;;;;;;0.53;0.53;;;22.00;67.70;;;;;;5109731;27;43987;-68
2022/06/09 06:08:27;;;;;;;0.60;0.60;;;21.50;68.40;;;;;;5090220;27;43944;-69
2022/06/09 06:10:56;;;;;;;0.70;0.70;;;21.40;68.90;;;;;;5090636;27;43948;-68
2022/06/09 06:13:25;;;;;;;0.53;0.53;;;21.30;69.30;;;;;;5102703;27;43993;-68
2022/06/09 06:15:53;;;;;;;0.70;0.70;;;21.20;69.50;;;;;;5109862;27;43923;-69
2022/06/09 06:18:30;;;;;;;0.70;0.70;;;21.10;69.80;;;;;;5089797;27;43990;-69
2022/06/09 06:20:58;;;;;;;0.70;0.70;;;21.10;70.00;;;;;;5104587;27;43944;-67
2022/06/09 06:23:27;;;;;;;0.70;0.70;;;21.00;70.10;;;;;;5101693;27;44796;-69
2022/06/09 06:25:55;;;;;;;0.63;0.63;;;21.00;70.30;;;;;;5089842;27;44020;-69
2022/06/09 06:28:24;;;;;;;0.67;0.67;;;20.90;70.30;;;;;;5089835;27;43928;-69
2022/06/09 06:30:57;;;;;;;0.70;0.70;;;20.90;70.40;;;;;;5090188;27;43825;-69
2022/06/09 06:33:25;;;;;;;0.80;0.80;;;20.90;70.50;;;;;;5089648;27;43966;-68
2022/06/09 06:35:53;;;;;;;0.90;0.90;;;20.90;70.50;;;;;;5089730;27;44057;-68
2022/06/09 06:38:21;;;;;;;0.63;0.63;;;20.90;70.50;;;;;;5089671;27;43912;-68
2022/06/09 06:40:49;;;;;;;0.70;0.70;;;20.90;70.60;;;;;;5071417;27;44303;-69
2022/06/09 06:43:17;;;;;;;0.70;0.70;;;20.90;70.60;;;;;;5098113;27;44666;-68
2022/06/09 06:45:46;;;;;;;0.60;0.60;;;20.90;70.60;;;;;;5090610;27;44861;-69
2022/06/09 06:48:15;;;;;;;0.70;0.70;;;20.90;71.30;;;;;;5090331;27;43444;-68
2022/06/09 06:50:43;;;;;;;0.60;0.60;;;20.90;70.80;;;;;;5107545;27;43462;-69
2022/06/09 06:53:12;;;;;;;0.70;0.70;;;20.90;71.30;;;;;;5070658;27;46878;-68
2022/06/09 06:55:40;;;;;;;0.80;0.80;;;21.00;71.10;;;;;;5105542;27;43325;-69
2022/06/09 06:58:08;;;;;;;0.67;0.67;;;21.20;70.60;;;;;;5087470;27;43852;-68
2022/06/09 07:00:42;;;;;;;0.70;0.70;;;21.40;70.10;;;;;;5089587;27;43787;-69
2022/06/09 07:03:11;;;;;;;0.70;0.70;;;21.60;69.50;;;;;;5071089;27;45359;-68
2022/06/09 07:05:54;;;;;;;0.50;0.50;;;21.80;69.10;;;;;;5089758;27;44288;-68
2022/06/09 07:08:24;;;;;;;0.60;0.60;;;21.90;68.40;;;;;;5109406;27;43340;-68
2022/06/09 07:10:52;;;;;;;0.80;0.80;;;22.10;68.10;;;;;;5090524;27;43968;-68
2022/06/09 07:13:20;;;;;;;0.80;0.80;;;22.20;67.70;;;;;;5089946;27;46539;-68
2022/06/09 07:15:49;;;;;;;0.60;0.60;;;22.30;67.40;;;;;;5108547;27;43930;-69
2022/06/09 07:18:18;;;;;;;0.60;0.60;;;22.30;67.00;;;;;;5108826;27;43951;-68
2022/06/09 07:20:46;;;;;;;0.90;0.87;;;22.30;66.80;;;;;;5089092;27;44003;-69
2022/06/09 07:23:14;;;;;;;0.70;0.70;;;22.20;66.90;;;;;;5088380;27;43722;-68
2022/06/09 07:25:42;;;;;;;0.50;0.50;;;22.10;67.30;;;;;;5108435;27;44064;-69
2022/06/09 07:28:10;;;;;;;0.60;0.60;;;21.90;67.60;;;;;;5108945;27;44053;-68
2022/06/09 07:30:38;;;;;;;0.77;0.77;;;21.70;68.00;;;;;;5109247;27;43844;-68
2022/06/09 07:33:06;;;;;;;0.60;0.60;;;21.50;68.50;;;;;;5095254;27;44716;-68
2022/06/09 07:35:37;;;;;;;0.73;0.70;;;21.40;69.00;;;;;;5088008;28;43396;-68
2022/06/09 07:38:06;;;;;;;0.77;0.77;;;21.20;70.10;;;;;;5088748;28;43974;-69
2022/06/09 07:40:34;;;;;;;0.50;0.50;;;21.20;69.60;;;;;;5095510;27;43911;-68
2022/06/09 07:43:03;;;;;;;0.70;0.70;;;21.10;69.90;;;;;;5089690;27;45582;-68
2022/06/09 07:45:31;;;;;;;0.80;0.80;;;21.00;70.00;;;;;;5108238;27;43385;-68
2022/06/09 07:48:00;;;;;;;0.70;0.70;;;21.00;70.20;;;;;;5075966;27;43930;-69
2022/06/09 07:50:28;;;;;;;0.83;0.83;;;21.00;70.40;;;;;;5088795;27;43399;-69
2022/06/09 07:52:57;;;;;;;1.87;1.07;;;20.90;70.40;;;;;;5088404;27;43850;-70
2022/06/09 07:55:25;;;;;;;1.63;1.30;;;20.90;70.50;;;;;;5088379;27;43998;-68
2022/06/09 07:57:53;;;;;;;3.57;1.63;;;20.90;70.60;;;;;;5095583;27;43798;-68
2022/06/09 08:00:22;;;;;;;4.77;1.90;;;20.90;70.60;;;;;;5101174;27;43953;-68
2022/06/09 08:02:50;;;;;;;2.83;2.10;;;20.90;70.70;;;;;;5069578;27;43891;-69
2022/06/09 08:05:22;;;;;;;4.17;2.20;;;20.90;70.70;;;;;;5088285;27;43761;-68
2022/06/09 08:07:50;;;;;;;6.43;2.40;;;20.90;70.80;;;;;;5088098;27;43938;-68
2022/06/09 08:10:21;;;;;;;4.80;2.73;;;20.90;70.80;;;;;;5087251;27;44190;-68
2022/06/09 08:12:53;;;;;;;3.70;2.83;;;20.90;70.80;;;;;;5088033;27;44016;-69
2022/06/09 08:15:24;;;;;;;6.33;2.83;;;20.90;70.80;;;;;;5088275;27;43331;-68
2022/06/09 08:17:52;;;;;;;4.50;3.20;;;20.90;70.80;;;;;;5104210;27;43991;-70
2022/06/09 08:20:20;;;;;;;7.20;2.97;;;20.90;71.40;;;;;;5089494;27;44229;-68
2022/06/09 08:23:08;;;;;;;6.20;3.20;;;21.00;71.20;;;;;;5107566;27;44780;-68
2022/06/09 08:25:38;;;;;;;5.13;2.90;;;21.20;70.70;;;;;;5107386;27;44099;-68
2022/06/09 08:28:07;;;;;;;7.47;2.87;;;21.40;70.10;;;;;;5095118;27;43921;-68
2022/06/09 08:30:36;;;;;;;6.43;3.10;;;21.50;69.50;;;;;;5088170;27;44074;-68
2022/06/09 08:33:05;;;;;;;6.73;3.57;;;21.70;69.00;;;;;;5087291;27;44729;-68
2022/06/09 08:35:34;;;;;;;5.37;3.13;;;21.90;68.50;;;;;;5088853;27;43515;-68
2022/06/09 08:38:02;;;;;;;6.27;3.23;;;22.00;68.10;;;;;;5107679;27;43941;-68
2022/06/09 08:40:34;;;;;;;6.17;3.40;;;22.10;67.80;;;;;;5087845;28;43763;-68
2022/06/09 08:43:13;;;;;;;4.47;3.00;;;22.20;67.40;;;;;;5107210;27;44040;-68
2022/06/09 08:45:42;;;;;;;5.57;3.30;;;22.20;67.00;;;;;;5107635;27;43906;-69
2022/06/09 08:48:14;;;;;;;7.73;4.13;;;22.20;67.00;;;;;;5086675;27;44032;-68
2022/06/09 08:50:43;;;;;;;7.57;3.43;;;22.10;67.20;;;;;;5069546;27;44125;-70
2022/06/09 08:53:18;;;;;;;5.87;3.23;;;21.90;67.40;;;;;;5103623;27;43996;-69
2022/06/09 08:55:47;;;;;;;6.50;3.50;;;21.70;67.90;;;;;;5088156;27;45617;-69
2022/06/09 08:58:24;;;;;;;5.87;3.67;;;21.50;68.40;;;;;;5107281;27;43763;-68
2022/06/09 09:00:58;;;;;;;6.23;3.70;;;21.40;68.90;;;;;;5107400;27;43901;-68
2022/06/09 09:03:29;;;;;;;5.67;3.47;;;21.20;69.30;;;;;;5100719;27;43961;-68
2022/06/09 09:05:59;;;;;;;7.70;3.80;;;21.20;69.60;;;;;;5087450;27;43858;-68
2022/06/09 09:08:27;;;;;;;5.07;3.70;;;21.10;69.90;;;;;;5087201;28;43928;-68
2022/06/09 09:11:02;;;;;;;5.37;3.70;;;21.00;70.10;;;;;;5087375;28;43965;-69
2022/06/09 09:13:41;;;;;;;5.00;3.40;;;21.00;70.30;;;;;;5094369;27;43983;-69
2022/06/09 09:16:18;;;;;;;4.30;3.23;;;20.90;70.30;;;;;;5098072;27;43285;-69
2022/06/09 09:18:48;;;;;;;5.03;3.43;;;20.90;70.50;;;;;;5087241;27;43989;-69
2022/06/09 09:21:30;;;;;;;5.33;3.20;;;20.90;71.30;;;;;;5075418;27;43611;-68
2022/06/09 09:24:04;;;;;;;4.50;3.20;;;20.90;70.60;;;;;;5111180;27;43844;-68
2022/06/09 09:26:48;;;;;;;4.97;3.33;;;20.90;70.70;;;;;;5090943;27;43893;-68
2022/06/09 09:29:22;;;;;;;4.50;3.23;;;20.80;70.70;;;;;;5090597;27;43356;-68
2022/06/09 09:31:52;;;;;;;3.87;3.00;;;20.80;70.70;;;;;;5094052;27;43938;-68
2022/06/09 09:34:22;;;;;;;5.30;3.37;;;20.80;70.70;;;;;;5091589;27;45740;-69
2022/06/09 09:36:52;;;;;;;3.77;2.83;;;20.80;70.70;;;;;;5093123;27;43984;-68
2022/06/09 09:39:23;;;;;;;5.00;2.80;;;20.80;70.80;;;;;;5090321;27;44114;-69
2022/06/09 09:41:56;;;;;;;5.40;3.40;;;20.80;70.80;;;;;;5072863;28;43344;-68
2022/06/09 09:44:27;;;;;;;4.23;2.97;;;20.80;70.90;;;;;;5095383;27;44171;-69
2022/06/09 09:46:57;;;;;;;3.83;2.97;;;20.90;71.40;;;;;;5109987;27;43951;-68
2022/06/09 09:49:27;;;;;;;3.10;2.80;;;21.00;71.10;;;;;;5110112;27;43463;-69
2022/06/09 09:51:55;;;;;;;2.93;2.50;;;21.20;70.70;;;;;;5110617;27;44092;-68
2022/06/09 09:54:26;;;;;;;2.80;2.60;;;21.30;69.90;;;;;;5097508;27;44012;-70
2022/06/09 09:57:05;;;;;;;3.83;2.53;;;21.50;69.40;;;;;;5109817;27;43921;-69
2022/06/09 09:59:44;;;;;;;3.67;2.50;;;21.70;68.90;;;;;;5110192;27;43852;-68
2022/06/09 10:08:39;;;;;;;2.87;2.60;;;22.10;67.50;;;;;;5090050;27;43889;-69
2022/06/09 10:14:01;;;;;;;2.60;2.40;;;22.20;67.10;;;;;;5090617;27;43970;-69
2022/06/09 10:16:32;;;;;;;2.77;2.57;;;22.10;67.20;;;;;;5090125;27;43836;-68
2022/06/09 10:19:18;;;;;;;2.60;2.50;;;21.90;67.50;;;;;;5097712;27;43823;-69
2022/06/09 10:22:05;;;;;;;2.33;2.13;;;21.70;68.00;;;;;;5109721;27;43967;-68
2022/06/09 10:24:43;;;;;;;2.73;2.40;;;21.50;68.50;;;;;;5110009;27;43832;-68
2022/06/09 10:27:12;;;;;;;3.30;2.53;;;21.30;68.90;;;;;;5109717;27;43908;-68
2022/06/09 10:29:44;;;;;;;2.90;2.67;;;21.20;69.40;;;;;;5109708;27;44038;-69
2022/06/09 10:32:17;;;;;;;2.37;2.20;;;21.10;69.60;;;;;;5108824;27;43973;-69
2022/06/09 10:34:49;;;;;;;2.23;2.13;;;21.10;69.90;;;;;;5087958;28;43538;-67
2022/06/09 10:37:25;;;;;;;2.50;2.30;;;21.00;70.00;;;;;;5089385;28;43755;-69
2022/06/09 10:39:57;;;;;;;2.37;2.17;;;21.00;70.20;;;;;;5082932;28;45642;-68
2022/06/09 10:42:29;;;;;;;2.37;2.23;;;20.90;70.30;;;;;;5089564;28;43412;-68
2022/06/09 10:45:17;;;;;;;2.33;2.20;;;20.90;70.40;;;;;;5087605;27;44047;-69
2022/06/09 10:56:30;;;;;;;2.00;1.90;;;20.80;70.60;;;;;;5089076;28;43914;-69
2022/06/09 10:59:00;;;;;;;2.37;2.20;;;20.80;70.60;;;;;;5074590;27;45695;-68
2022/06/09 11:01:30;;;;;;;2.20;2.10;;;20.80;70.60;;;;;;5090450;27;45532;-68
2022/06/09 11:03:59;;;;;;;2.13;1.90;;;20.80;70.60;;;;;;5105578;27;43971;-68
2022/06/09 11:06:36;;;;;;;1.80;1.70;;;20.80;70.60;;;;;;5089980;27;44028;-68
2022/06/09 11:09:12;;;;;;;2.10;2.00;;;20.80;70.60;;;;;;5089229;27;43997;-70
2022/06/09 11:11:44;;;;;;;2.13;1.93;;;20.80;71.20;;;;;;5109272;27;43847;-68
2022/06/09 11:14:23;;;;;;;2.10;1.90;;;21.00;71.10;;;;;;5089276;27;44009;-68
2022/06/09 11:16:56;;;;;;;1.87;1.77;;;21.20;70.70;;;;;;5089452;27;43979;-69
2022/06/09 11:19:40;;;;;;;1.90;1.80;;;21.30;70.00;;;;;;5086277;27;46350;-68
2022/06/09 11:22:15;;;;;;;1.90;1.80;;;21.50;69.50;;;;;;5109219;27;43911;-69
2022/06/09 11:24:49;;;;;;;1.70;1.70;;;21.70;69.00;;;;;;5102400;27;44019;-68
2022/06/09 11:27:23;;;;;;;1.90;1.80;;;21.80;68.50;;;;;;5089232;28;43908;-68
2022/06/09 11:30:00;;;;;;;2.00;1.83;;;22.00;68.10;;;;;;5109060;27;43883;-69
2022/06/09 11:32:31;;;;;;;2.10;2.00;;;22.00;67.60;;;;;;5093918;27;44037;-68
2022/06/09 11:35:18;;;;;;;1.50;1.50;;;22.10;67.30;;;;;;5098252;27;43896;-69
2022/06/09 11:38:14;;;;;;;1.60;1.50;;;22.20;67.00;;;;;;5104494;27;43913;-68
2022/06/09 11:40:44;;;;;;;1.83;1.73;;;22.10;67.00;;;;;;5091030;27;43689;-68
2022/06/09 11:43:33;;;;;;;1.83;1.80;;;22.00;67.40;;;;;;5108195;27;43849;-69
2022/06/09 11:46:02;;;;;;;2.33;1.67;;;21.80;67.70;;;;;;5072055;28;44033;-68
2022/06/09 11:48:34;;;;;;;1.80;1.70;;;21.60;68.20;;;;;;5089338;27;43324;-68
2022/06/09 11:51:04;;;;;;;1.87;1.77;;;21.40;68.70;;;;;;5088301;27;44076;-68
2022/06/09 11:53:36;;;;;;;1.60;1.60;;;21.30;69.20;;;;;;5088381;27;44102;-69
2022/06/09 11:56:34;;;;;;;1.70;1.60;;;21.20;69.50;;;;;;5087861;28;43923;-69
2022/06/09 11:59:04;;;;;;;1.80;1.70;;;21.10;69.90;;;;;;5088013;28;43390;-68
2022/06/09 12:01:55;;;;;;;1.80;1.70;;;21.00;70.00;;;;;;5087642;28;44015;-69
2022/06/09 12:04:35;;;;;;;1.80;1.70;;;21.00;70.30;;;;;;5062270;28;44372;-68
2022/06/09 12:07:14;;;;;;;2.50;2.03;;;20.90;70.30;;;;;;5087863;28;43915;-69
2022/06/09 12:09:51;;;;;;;1.70;1.60;;;20.90;70.40;;;;;;5099549;27;43423;-68
2022/06/09 12:12:36;;;;;;;1.70;1.70;;;20.90;70.60;;;;;;5088923;27;43863;-68
2022/06/09 12:15:26;;;;;;;1.50;1.40;;;20.90;70.70;;;;;;5088164;27;43940;-69
2022/06/09 12:17:57;;;;;;;2.07;1.70;;;20.90;70.70;;;;;;5083735;27;43973;-68
2022/06/09 12:20:28;;;;;;;1.80;1.70;;;20.80;70.70;;;;;;5088385;27;43943;-68
2022/06/09 12:23:23;;;;;;;1.73;1.63;;;20.80;70.60;;;;;;5087952;27;43943;-68
2022/06/09 12:26:22;;;;;;;1.60;1.50;;;20.80;70.70;;;;;;5087753;27;43515;-68
2022/06/09 12:29:03;;;;;;;1.80;1.70;;;20.90;70.80;;;;;;5087792;27;43951;-69
2022/06/09 12:31:32;;;;;;;2.07;1.70;;;20.90;70.80;;;;;;5069681;27;44130;-69
2022/06/09 12:34:01;;;;;;;2.10;1.70;;;20.80;70.80;;;;;;5101966;27;44310;-68
2022/06/09 12:36:38;;;;;;;1.60;1.53;;;20.90;71.40;;;;;;5107505;27;43310;-69
2022/06/09 12:39:14;;;;;;;1.50;1.50;;;21.00;71.10;;;;;;5091771;27;43939;-68
2022/06/09 12:41:45;;;;;;;1.40;1.40;;;21.20;70.80;;;;;;5105488;27;43940;-68
2022/06/09 12:44:27;;;;;;;2.03;1.63;;;21.40;70.20;;;;;;5088687;27;45962;-68
2022/06/09 12:46:56;;;;;;;1.70;1.70;;;21.50;69.50;;;;;;5107066;27;43937;-70
2022/06/09 12:49:29;;;;;;;1.60;1.50;;;21.70;69.10;;;;;;5107209;27;43963;-68
2022/06/09 12:51:58;;;;;;;1.67;1.53;;;21.80;68.60;;;;;;5101038;27;43915;-69
2022/06/09 12:54:34;;;;;;;1.53;1.50;;;21.90;68.20;;;;;;5087075;27;43958;-68
2022/06/09 12:57:05;;;;;;;1.53;1.50;;;22.10;67.90;;;;;;5068440;27;45477;-69
2022/06/09 12:59:35;;;;;;;1.40;1.40;;;22.10;67.50;;;;;;5087792;27;44030;-68
2022/06/09 13:02:24;;;;;;;1.40;1.40;;;22.20;67.20;;;;;;5088219;27;43447;-68
2022/06/09 13:04:56;;;;;;;1.60;1.50;;;22.10;67.20;;;;;;5086976;27;43982;-68
2022/06/09 13:07:26;;;;;;;1.70;1.60;;;22.00;67.50;;;;;;5087188;27;43979;-68
2022/06/09 13:10:01;;;;;;;1.63;1.63;;;21.80;67.90;;;;;;5087549;27;44309;-69
2022/06/09 13:15:21;;;;;;;1.60;1.60;;;21.40;68.90;;;;;;5086943;28;43584;-68
2022/06/09 13:17:56;;;;;;;1.50;1.40;;;21.30;69.40;;;;;;5086535;28;43963;-68
2022/06/09 13:20:26;;;;;;;1.30;1.30;;;21.20;69.80;;;;;;5086710;28;43979;-69
2022/06/09 13:22:54;;;;;;;1.30;1.30;;;21.10;70.00;;;;;;5087096;28;43992;-69
2022/06/09 13:25:23;;;;;;;1.10;1.10;;;21.00;70.20;;;;;;5086758;27;43867;-69
2022/06/09 13:27:51;;;;;;;1.20;1.20;;;21.00;70.40;;;;;;5086861;27;43903;-69
2022/06/09 13:30:40;;;;;;;1.47;1.47;;;20.90;70.40;;;;;;5093984;27;44065;-69
2022/06/09 13:33:32;;;;;;;1.50;1.50;;;20.90;70.60;;;;;;5107304;27;43431;-68
2022/06/09 13:36:20;;;;;;;1.53;1.30;;;20.90;70.70;;;;;;5092800;27;43683;-69
2022/06/09 13:38:51;;;;;;;1.30;1.30;;;20.90;70.80;;;;;;5086804;27;43965;-68
2022/06/09 13:41:24;;;;;;;1.53;1.37;;;20.90;70.80;;;;;;5068766;27;43987;-69
2022/06/09 13:43:53;;;;;;;1.30;1.30;;;20.90;70.80;;;;;;5069140;27;43936;-68